sensor_id;sensor_type;location;lat;lon;timestamp;P1;durP1;ratioP1;P2;durP2;ratioP2
30617;SDS011;17384;51.214;9.202;2022-10-31T08:40:52;16.92;;;7.35;;
30617;SDS011;17384;51.214;9.202;2022-10-31T08:43:17;24.02;;;8.27;;
30617;SDS011;17384;51.214;9.202;2022-10-31T08:45:43;18.45;;;6.97;;
30617;SDS011;17384;51.214;9.202;2022-10-31T08:48:09;16.98;;;7.47;;
30617;SDS011;17384;51.214;9.202;2022-10-31T08:50:35;26.45;;;9.48;;
30617;SDS011;17384;51.214;9.202;2022-10-31T08:53:19;22.05;;;9.88;;
30617;SDS011;17384;51.214;9.202;2022-10-31T08:58:10;29.83;;;10.85;;
30617;SDS011;17384;51.214;9.202;2022-10-31T09:00:36;26.40;;;10.65;;
30617;SDS011;17384;51.214;9.202;2022-10-31T09:03:03;26.45;;;10.63;;
30617;SDS011;17384;51.214;9.202;2022-10-31T09:05:29;18.50;;;10.23;;
30617;SDS011;17384;51.214;9.202;2022-10-31T09:07:55;29.88;;;10.73;;
30617;SDS011;17384;51.214;9.202;2022-10-31T09:10:20;24.35;;;10.80;;
30617;SDS011;17384;51.214;9.202;2022-10-31T09:12:46;32.22;;;12.35;;
30617;SDS011;17384;51.214;9.202;2022-10-31T09:15:11;29.40;;;10.95;;
30617;SDS011;17384;51.214;9.202;2022-10-31T09:17:36;22.40;;;10.13;;
30617;SDS011;17384;51.214;9.202;2022-10-31T09:20:02;19.67;;;10.67;;
30617;SDS011;17384;51.214;9.202;2022-10-31T09:22:27;28.47;;;11.00;;
30617;SDS011;17384;51.214;9.202;2022-10-31T09:24:52;29.80;;;11.73;;
30617;SDS011;17384;51.214;9.202;2022-10-31T09:27:17;23.10;;;10.53;;
30617;SDS011;17384;51.214;9.202;2022-10-31T09:29:43;32.80;;;11.57;;
30617;SDS011;17384;51.214;9.202;2022-10-31T09:32:08;23.90;;;11.63;;
30617;SDS011;17384;51.214;9.202;2022-10-31T09:34:33;26.80;;;11.63;;
30617;SDS011;17384;51.214;9.202;2022-10-31T09:36:58;25.25;;;11.00;;
30617;SDS011;17384;51.214;9.202;2022-10-31T09:39:24;22.00;;;12.20;;
30617;SDS011;17384;51.214;9.202;2022-10-31T09:44:18;28.50;;;12.80;;
30617;SDS011;17384;51.214;9.202;2022-10-31T09:54:45;29.00;;;12.65;;
30617;SDS011;17384;51.214;9.202;2022-10-31T09:57:12;26.65;;;12.27;;
30617;SDS011;17384;51.214;9.202;2022-10-31T09:59:38;28.50;;;12.45;;
30617;SDS011;17384;51.214;9.202;2022-10-31T10:05:09;25.23;;;11.82;;
30617;SDS011;17384;51.214;9.202;2022-10-31T10:07:27;28.83;;;13.23;;
30617;SDS011;17384;51.214;9.202;2022-10-31T10:09:55;38.30;;;15.05;;
30617;SDS011;17384;51.214;9.202;2022-10-31T10:14:52;33.28;;;15.50;;
30617;SDS011;17384;51.214;9.202;2022-10-31T10:17:32;36.33;;;16.98;;
30617;SDS011;17384;51.214;9.202;2022-10-31T10:23:06;39.58;;;18.45;;
30617;SDS011;17384;51.214;9.202;2022-10-31T10:27:58;36.22;;;19.27;;
30617;SDS011;17384;51.214;9.202;2022-10-31T10:30:39;45.17;;;19.50;;
30617;SDS011;17384;51.214;9.202;2022-10-31T10:33:10;42.53;;;20.35;;
30617;SDS011;17384;51.214;9.202;2022-10-31T10:35:39;37.97;;;19.70;;
30617;SDS011;17384;51.214;9.202;2022-10-31T10:38:10;38.42;;;19.73;;
30617;SDS011;17384;51.214;9.202;2022-10-31T10:40:37;45.78;;;20.58;;
30617;SDS011;17384;51.214;9.202;2022-10-31T10:45:53;44.00;;;20.38;;
30617;SDS011;17384;51.214;9.202;2022-10-31T10:48:44;44.22;;;20.40;;
30617;SDS011;17384;51.214;9.202;2022-10-31T10:51:57;47.47;;;20.80;;
30617;SDS011;17384;51.214;9.202;2022-10-31T10:54:16;40.58;;;20.00;;
30617;SDS011;17384;51.214;9.202;2022-10-31T10:59:09;51.77;;;21.80;;
30617;SDS011;17384;51.214;9.202;2022-10-31T11:01:36;51.78;;;22.73;;
30617;SDS011;17384;51.214;9.202;2022-10-31T11:04:02;49.15;;;23.65;;
30617;SDS011;17384;51.214;9.202;2022-10-31T11:06:27;45.55;;;23.83;;
30617;SDS011;17384;51.214;9.202;2022-10-31T11:08:53;42.35;;;22.80;;
30617;SDS011;17384;51.214;9.202;2022-10-31T11:13:44;49.07;;;21.77;;
30617;SDS011;17384;51.214;9.202;2022-10-31T11:16:11;48.65;;;23.77;;
30617;SDS011;17384;51.214;9.202;2022-10-31T11:18:41;51.15;;;23.33;;
30617;SDS011;17384;51.214;9.202;2022-10-31T11:21:17;51.40;;;24.30;;
30617;SDS011;17384;51.214;9.202;2022-10-31T11:23:44;45.30;;;23.33;;
30617;SDS011;17384;51.214;9.202;2022-10-31T11:26:16;42.30;;;21.93;;
30617;SDS011;17384;51.214;9.202;2022-10-31T11:28:43;51.13;;;23.27;;
30617;SDS011;17384;51.214;9.202;2022-10-31T11:31:11;42.47;;;22.00;;
30617;SDS011;17384;51.214;9.202;2022-10-31T11:33:39;37.33;;;21.48;;
30617;SDS011;17384;51.214;9.202;2022-10-31T11:36:18;35.72;;;20.10;;
30617;SDS011;17384;51.214;9.202;2022-10-31T11:38:46;38.05;;;22.33;;
30617;SDS011;17384;51.214;9.202;2022-10-31T11:41:13;45.78;;;22.77;;
30617;SDS011;17384;51.214;9.202;2022-10-31T11:43:39;49.88;;;24.17;;
30617;SDS011;17384;51.214;9.202;2022-10-31T11:46:10;44.95;;;23.17;;
30617;SDS011;17384;51.214;9.202;2022-10-31T11:48:36;41.17;;;21.65;;
30617;SDS011;17384;51.214;9.202;2022-10-31T11:51:02;39.95;;;21.65;;
30617;SDS011;17384;51.214;9.202;2022-10-31T11:53:30;40.13;;;20.63;;
30617;SDS011;17384;51.214;9.202;2022-10-31T11:56:15;39.15;;;20.17;;
30617;SDS011;17384;51.214;9.202;2022-10-31T11:58:41;43.88;;;22.38;;
30617;SDS011;17384;51.214;9.202;2022-10-31T12:01:19;33.75;;;18.30;;
30617;SDS011;17384;51.214;9.202;2022-10-31T12:06:26;37.58;;;19.38;;
30617;SDS011;17384;51.214;9.202;2022-10-31T12:08:53;43.50;;;20.17;;
30617;SDS011;17384;51.214;9.202;2022-10-31T12:21:12;35.45;;;17.65;;
30617;SDS011;17384;51.214;9.202;2022-10-31T12:24:25;46.10;;;17.75;;
30617;SDS011;17384;51.214;9.202;2022-10-31T12:45:36;36.50;;;17.77;;
30617;SDS011;17384;51.214;9.202;2022-10-31T12:58:10;40.95;;;18.35;;
30617;SDS011;17384;51.214;9.202;2022-10-31T13:00:36;38.10;;;19.23;;
30617;SDS011;17384;51.214;9.202;2022-10-31T13:03:21;34.80;;;16.67;;
30617;SDS011;17384;51.214;9.202;2022-10-31T13:05:51;31.17;;;16.42;;
30617;SDS011;17384;51.214;9.202;2022-10-31T13:08:21;32.35;;;15.90;;
30617;SDS011;17384;51.214;9.202;2022-10-31T13:10:48;41.17;;;17.30;;
30617;SDS011;17384;51.214;9.202;2022-10-31T13:13:21;33.90;;;16.23;;
30617;SDS011;17384;51.214;9.202;2022-10-31T13:15:49;35.40;;;15.98;;
30617;SDS011;17384;51.214;9.202;2022-10-31T13:18:22;28.52;;;15.27;;
30617;SDS011;17384;51.214;9.202;2022-10-31T13:20:48;31.73;;;16.90;;
30617;SDS011;17384;51.214;9.202;2022-10-31T13:25:45;47.67;;;17.88;;
30617;SDS011;17384;51.214;9.202;2022-10-31T13:30:42;44.95;;;19.00;;
30617;SDS011;17384;51.214;9.202;2022-10-31T13:40:37;33.03;;;16.33;;
30617;SDS011;17384;51.214;9.202;2022-10-31T13:45:59;35.92;;;17.13;;
30617;SDS011;17384;51.214;9.202;2022-10-31T13:51:00;36.57;;;16.50;;
30617;SDS011;17384;51.214;9.202;2022-10-31T13:58:32;32.95;;;16.92;;
30617;SDS011;17384;51.214;9.202;2022-10-31T14:01:16;29.10;;;16.50;;
30617;SDS011;17384;51.214;9.202;2022-10-31T14:03:47;35.05;;;16.60;;
30617;SDS011;17384;51.214;9.202;2022-10-31T14:06:20;32.97;;;16.15;;
30617;SDS011;17384;51.214;9.202;2022-10-31T14:08:48;30.88;;;16.70;;
30617;SDS011;17384;51.214;9.202;2022-10-31T14:11:24;35.58;;;16.23;;
30617;SDS011;17384;51.214;9.202;2022-10-31T14:13:52;41.00;;;18.63;;
30617;SDS011;17384;51.214;9.202;2022-10-31T14:16:20;36.78;;;15.85;;
30617;SDS011;17384;51.214;9.202;2022-10-31T14:18:50;35.40;;;16.88;;
30617;SDS011;17384;51.214;9.202;2022-10-31T14:23:41;34.65;;;15.75;;
30617;SDS011;17384;51.214;9.202;2022-10-31T14:28:40;35.97;;;13.82;;
30617;SDS011;17384;51.214;9.202;2022-10-31T14:31:24;31.10;;;14.57;;
30617;SDS011;17384;51.214;9.202;2022-10-31T14:33:50;26.55;;;13.68;;
30617;SDS011;17384;51.214;9.202;2022-10-31T14:39:21;28.70;;;14.27;;
30617;SDS011;17384;51.214;9.202;2022-10-31T14:44:23;26.05;;;15.55;;
30617;SDS011;17384;51.214;9.202;2022-10-31T14:47:00;33.05;;;16.35;;
30617;SDS011;17384;51.214;9.202;2022-10-31T14:51:52;36.42;;;17.13;;
30617;SDS011;17384;51.214;9.202;2022-10-31T14:54:19;35.85;;;16.42;;
30617;SDS011;17384;51.214;9.202;2022-10-31T14:56:56;31.77;;;17.80;;
30617;SDS011;17384;51.214;9.202;2022-10-31T14:59:24;32.22;;;16.58;;
30617;SDS011;17384;51.214;9.202;2022-10-31T15:01:54;33.30;;;15.25;;
30617;SDS011;17384;51.214;9.202;2022-10-31T15:04:22;32.85;;;14.68;;
30617;SDS011;17384;51.214;9.202;2022-10-31T15:06:50;33.45;;;14.27;;
30617;SDS011;17384;51.214;9.202;2022-10-31T15:09:23;28.38;;;13.70;;
30617;SDS011;17384;51.214;9.202;2022-10-31T15:11:48;32.10;;;14.07;;
30617;SDS011;17384;51.214;9.202;2022-10-31T15:14:25;35.72;;;13.90;;
30617;SDS011;17384;51.214;9.202;2022-10-31T15:16:50;29.92;;;14.20;;
30617;SDS011;17384;51.214;9.202;2022-10-31T15:19:22;25.35;;;13.63;;
30617;SDS011;17384;51.214;9.202;2022-10-31T15:21:49;24.33;;;13.30;;
30617;SDS011;17384;51.214;9.202;2022-10-31T15:24:15;25.60;;;11.98;;
30617;SDS011;17384;51.214;9.202;2022-10-31T15:26:44;30.70;;;12.23;;
30617;SDS011;17384;51.214;9.202;2022-10-31T15:29:14;31.10;;;13.07;;
30617;SDS011;17384;51.214;9.202;2022-10-31T15:31:49;29.20;;;12.60;;
30617;SDS011;17384;51.214;9.202;2022-10-31T15:34:16;22.38;;;11.93;;
30617;SDS011;17384;51.214;9.202;2022-10-31T15:36:42;28.85;;;13.07;;
30617;SDS011;17384;51.214;9.202;2022-10-31T15:39:11;21.02;;;12.00;;
30617;SDS011;17384;51.214;9.202;2022-10-31T15:41:47;24.75;;;12.45;;
30617;SDS011;17384;51.214;9.202;2022-10-31T15:44:19;27.70;;;14.20;;
30617;SDS011;17384;51.214;9.202;2022-10-31T15:47:19;30.17;;;13.07;;
30617;SDS011;17384;51.214;9.202;2022-10-31T15:49:41;36.97;;;13.55;;
30617;SDS011;17384;51.214;9.202;2022-10-31T15:54:32;25.40;;;12.75;;
30617;SDS011;17384;51.214;9.202;2022-10-31T15:56:57;26.65;;;12.98;;
30617;SDS011;17384;51.214;9.202;2022-10-31T15:59:24;26.90;;;12.43;;
30617;SDS011;17384;51.214;9.202;2022-10-31T16:02:07;24.48;;;13.27;;
30617;SDS011;17384;51.214;9.202;2022-10-31T16:04:34;37.72;;;12.93;;
30617;SDS011;17384;51.214;9.202;2022-10-31T16:09:25;30.15;;;13.30;;
30617;SDS011;17384;51.214;9.202;2022-10-31T16:11:50;24.60;;;12.48;;
30617;SDS011;17384;51.214;9.202;2022-10-31T16:14:17;20.55;;;11.60;;
30617;SDS011;17384;51.214;9.202;2022-10-31T16:16:45;33.95;;;12.68;;
30617;SDS011;17384;51.214;9.202;2022-10-31T16:22:14;28.80;;;12.55;;
30617;SDS011;17384;51.214;9.202;2022-10-31T16:27:46;32.47;;;12.63;;
30617;SDS011;17384;51.214;9.202;2022-10-31T16:30:00;30.73;;;12.73;;
30617;SDS011;17384;51.214;9.202;2022-10-31T16:32:27;28.88;;;13.60;;
30617;SDS011;17384;51.214;9.202;2022-10-31T16:37:24;24.55;;;12.85;;
30617;SDS011;17384;51.214;9.202;2022-10-31T16:39:49;34.85;;;13.70;;
30617;SDS011;17384;51.214;9.202;2022-10-31T16:42:14;28.43;;;12.60;;
30617;SDS011;17384;51.214;9.202;2022-10-31T16:44:40;26.48;;;12.60;;
30617;SDS011;17384;51.214;9.202;2022-10-31T16:47:09;22.65;;;12.13;;
30617;SDS011;17384;51.214;9.202;2022-10-31T16:49:34;24.38;;;11.93;;
30617;SDS011;17384;51.214;9.202;2022-10-31T16:52:00;25.73;;;13.73;;
30617;SDS011;17384;51.214;9.202;2022-10-31T16:54:25;23.87;;;14.03;;
30617;SDS011;17384;51.214;9.202;2022-10-31T16:56:50;40.10;;;15.90;;
30617;SDS011;17384;51.214;9.202;2022-10-31T16:59:16;28.33;;;14.75;;
30617;SDS011;17384;51.214;9.202;2022-10-31T17:01:47;34.90;;;16.63;;
30617;SDS011;17384;51.214;9.202;2022-10-31T17:04:13;43.88;;;17.38;;
30617;SDS011;17384;51.214;9.202;2022-10-31T17:06:39;36.97;;;18.17;;
30617;SDS011;17384;51.214;9.202;2022-10-31T17:09:05;44.97;;;18.90;;
30617;SDS011;17384;51.214;9.202;2022-10-31T17:11:33;30.83;;;16.75;;
30617;SDS011;17384;51.214;9.202;2022-10-31T17:13:59;37.92;;;18.20;;
30617;SDS011;17384;51.214;9.202;2022-10-31T17:16:25;33.00;;;18.20;;
30617;SDS011;17384;51.214;9.202;2022-10-31T17:18:51;43.75;;;15.55;;
30617;SDS011;17384;51.214;9.202;2022-10-31T17:21:20;35.73;;;15.50;;
30617;SDS011;17384;51.214;9.202;2022-10-31T17:23:47;36.90;;;15.15;;
30617;SDS011;17384;51.214;9.202;2022-10-31T17:26:13;33.65;;;15.40;;
30617;SDS011;17384;51.214;9.202;2022-10-31T17:28:39;32.83;;;15.25;;
30617;SDS011;17384;51.214;9.202;2022-10-31T17:31:05;32.17;;;14.80;;
30617;SDS011;17384;51.214;9.202;2022-10-31T17:33:30;36.25;;;14.00;;
30617;SDS011;17384;51.214;9.202;2022-10-31T17:35:55;34.50;;;14.93;;
30617;SDS011;17384;51.214;9.202;2022-10-31T17:38:21;26.35;;;12.80;;
30617;SDS011;17384;51.214;9.202;2022-10-31T17:40:48;27.38;;;13.57;;
30617;SDS011;17384;51.214;9.202;2022-10-31T17:43:13;27.02;;;12.73;;
30617;SDS011;17384;51.214;9.202;2022-10-31T17:45:39;29.95;;;14.77;;
30617;SDS011;17384;51.214;9.202;2022-10-31T17:48:05;24.55;;;14.10;;
30617;SDS011;17384;51.214;9.202;2022-10-31T17:50:30;31.88;;;14.13;;
30617;SDS011;17384;51.214;9.202;2022-10-31T17:52:56;33.83;;;13.52;;
30617;SDS011;17384;51.214;9.202;2022-10-31T17:55:22;21.85;;;12.35;;
30617;SDS011;17384;51.214;9.202;2022-10-31T17:57:47;31.05;;;13.60;;
30617;SDS011;17384;51.214;9.202;2022-10-31T18:00:14;32.78;;;14.95;;
30617;SDS011;17384;51.214;9.202;2022-10-31T18:02:39;31.52;;;14.35;;
30617;SDS011;17384;51.214;9.202;2022-10-31T18:05:05;31.88;;;14.32;;
30617;SDS011;17384;51.214;9.202;2022-10-31T18:07:31;29.60;;;11.77;;
30617;SDS011;17384;51.214;9.202;2022-10-31T18:09:56;33.28;;;13.88;;
30617;SDS011;17384;51.214;9.202;2022-10-31T18:12:22;28.15;;;12.40;;
30617;SDS011;17384;51.214;9.202;2022-10-31T18:14:47;29.50;;;13.23;;
30617;SDS011;17384;51.214;9.202;2022-10-31T18:17:12;28.45;;;13.02;;
30617;SDS011;17384;51.214;9.202;2022-10-31T18:19:38;24.95;;;13.02;;
30617;SDS011;17384;51.214;9.202;2022-10-31T18:22:04;34.80;;;15.70;;
30617;SDS011;17384;51.214;9.202;2022-10-31T18:24:29;31.98;;;14.43;;
30617;SDS011;17384;51.214;9.202;2022-10-31T18:26:54;33.45;;;13.98;;
30617;SDS011;17384;51.214;9.202;2022-10-31T18:29:20;30.38;;;13.90;;
30617;SDS011;17384;51.214;9.202;2022-10-31T18:31:45;33.78;;;14.45;;
30617;SDS011;17384;51.214;9.202;2022-10-31T18:34:15;30.55;;;13.32;;
30617;SDS011;17384;51.214;9.202;2022-10-31T18:36:40;27.40;;;14.23;;
30617;SDS011;17384;51.214;9.202;2022-10-31T18:39:06;29.93;;;14.37;;
30617;SDS011;17384;51.214;9.202;2022-10-31T18:41:31;50.08;;;27.60;;
30617;SDS011;17384;51.214;9.202;2022-10-31T18:43:57;33.60;;;18.58;;
30617;SDS011;17384;51.214;9.202;2022-10-31T18:46:24;26.30;;;13.88;;
30617;SDS011;17384;51.214;9.202;2022-10-31T18:48:50;34.92;;;17.25;;
30617;SDS011;17384;51.214;9.202;2022-10-31T18:51:15;34.50;;;17.88;;
30617;SDS011;17384;51.214;9.202;2022-10-31T18:53:42;33.97;;;16.85;;
30617;SDS011;17384;51.214;9.202;2022-10-31T18:56:08;33.15;;;14.20;;
30617;SDS011;17384;51.214;9.202;2022-10-31T18:58:34;27.52;;;14.98;;
30617;SDS011;17384;51.214;9.202;2022-10-31T19:01:04;42.67;;;19.38;;
30617;SDS011;17384;51.214;9.202;2022-10-31T19:03:29;41.20;;;20.75;;
30617;SDS011;17384;51.214;9.202;2022-10-31T19:05:55;43.70;;;21.23;;
30617;SDS011;17384;51.214;9.202;2022-10-31T19:08:20;42.88;;;21.98;;
30617;SDS011;17384;51.214;9.202;2022-10-31T19:10:45;40.95;;;21.77;;
30617;SDS011;17384;51.214;9.202;2022-10-31T19:13:11;43.53;;;21.33;;
30617;SDS011;17384;51.214;9.202;2022-10-31T19:15:37;40.10;;;20.02;;
30617;SDS011;17384;51.214;9.202;2022-10-31T19:18:02;34.92;;;19.25;;
30617;SDS011;17384;51.214;9.202;2022-10-31T19:20:28;37.30;;;17.67;;
30617;SDS011;17384;51.214;9.202;2022-10-31T19:22:54;29.73;;;15.57;;
30617;SDS011;17384;51.214;9.202;2022-10-31T19:25:19;28.08;;;15.15;;
30617;SDS011;17384;51.214;9.202;2022-10-31T19:27:45;38.13;;;16.15;;
30617;SDS011;17384;51.214;9.202;2022-10-31T19:30:10;27.70;;;15.80;;
30617;SDS011;17384;51.214;9.202;2022-10-31T19:32:36;37.65;;;14.30;;
30617;SDS011;17384;51.214;9.202;2022-10-31T19:35:02;36.00;;;15.57;;
30617;SDS011;17384;51.214;9.202;2022-10-31T19:37:30;33.58;;;13.00;;
30617;SDS011;17384;51.214;9.202;2022-10-31T19:39:56;34.65;;;13.70;;
30617;SDS011;17384;51.214;9.202;2022-10-31T19:42:21;26.20;;;14.38;;
30617;SDS011;17384;51.214;9.202;2022-10-31T19:44:48;28.52;;;13.27;;
30617;SDS011;17384;51.214;9.202;2022-10-31T19:47:13;28.38;;;13.55;;
30617;SDS011;17384;51.214;9.202;2022-10-31T19:49:38;31.40;;;13.18;;
30617;SDS011;17384;51.214;9.202;2022-10-31T19:52:04;24.38;;;13.75;;
30617;SDS011;17384;51.214;9.202;2022-10-31T19:54:29;23.60;;;12.05;;
30617;SDS011;17384;51.214;9.202;2022-10-31T19:56:56;30.55;;;12.63;;
30617;SDS011;17384;51.214;9.202;2022-10-31T19:59:21;30.35;;;14.23;;
30617;SDS011;17384;51.214;9.202;2022-10-31T20:01:46;24.00;;;13.23;;
30617;SDS011;17384;51.214;9.202;2022-10-31T20:04:11;35.90;;;13.57;;
30617;SDS011;17384;51.214;9.202;2022-10-31T20:06:37;27.92;;;13.10;;
30617;SDS011;17384;51.214;9.202;2022-10-31T20:09:04;24.60;;;12.95;;
30617;SDS011;17384;51.214;9.202;2022-10-31T20:11:30;23.02;;;12.10;;
30617;SDS011;17384;51.214;9.202;2022-10-31T20:13:58;24.13;;;12.90;;
30617;SDS011;17384;51.214;9.202;2022-10-31T20:16:24;31.90;;;14.45;;
30617;SDS011;17384;51.214;9.202;2022-10-31T20:18:50;24.58;;;13.88;;
30617;SDS011;17384;51.214;9.202;2022-10-31T20:21:17;30.98;;;12.88;;
30617;SDS011;17384;51.214;9.202;2022-10-31T20:23:42;28.80;;;12.60;;
30617;SDS011;17384;51.214;9.202;2022-10-31T20:26:09;24.73;;;12.23;;
30617;SDS011;17384;51.214;9.202;2022-10-31T20:28:35;20.20;;;11.02;;
30617;SDS011;17384;51.214;9.202;2022-10-31T20:31:05;19.08;;;11.75;;
30617;SDS011;17384;51.214;9.202;2022-10-31T20:33:31;27.08;;;11.88;;
30617;SDS011;17384;51.214;9.202;2022-10-31T20:35:57;28.05;;;13.50;;
30617;SDS011;17384;51.214;9.202;2022-10-31T20:38:22;29.02;;;12.90;;
30617;SDS011;17384;51.214;9.202;2022-10-31T20:40:47;31.40;;;12.88;;
30617;SDS011;17384;51.214;9.202;2022-10-31T20:43:12;22.03;;;12.97;;
30617;SDS011;17384;51.214;9.202;2022-10-31T20:45:39;30.05;;;12.82;;
30617;SDS011;17384;51.214;9.202;2022-10-31T20:48:04;37.53;;;13.20;;
30617;SDS011;17384;51.214;9.202;2022-10-31T20:50:29;24.75;;;12.68;;
30617;SDS011;17384;51.214;9.202;2022-10-31T20:52:55;24.15;;;12.75;;
30617;SDS011;17384;51.214;9.202;2022-10-31T20:55:20;26.40;;;13.32;;
30617;SDS011;17384;51.214;9.202;2022-10-31T20:57:45;42.40;;;15.00;;
30617;SDS011;17384;51.214;9.202;2022-10-31T21:00:11;24.17;;;12.85;;
30617;SDS011;17384;51.214;9.202;2022-10-31T21:02:39;30.35;;;14.38;;
30617;SDS011;17384;51.214;9.202;2022-10-31T21:05:08;30.42;;;14.82;;
30617;SDS011;17384;51.214;9.202;2022-10-31T21:07:34;26.85;;;13.07;;
30617;SDS011;17384;51.214;9.202;2022-10-31T21:09:59;23.55;;;12.48;;
30617;SDS011;17384;51.214;9.202;2022-10-31T21:12:24;21.70;;;11.73;;
30617;SDS011;17384;51.214;9.202;2022-10-31T21:14:50;20.48;;;12.43;;
30617;SDS011;17384;51.214;9.202;2022-10-31T21:17:15;25.80;;;13.25;;
30617;SDS011;17384;51.214;9.202;2022-10-31T21:19:40;26.02;;;12.85;;
30617;SDS011;17384;51.214;9.202;2022-10-31T21:22:05;21.55;;;12.25;;
30617;SDS011;17384;51.214;9.202;2022-10-31T21:24:31;28.25;;;13.95;;
30617;SDS011;17384;51.214;9.202;2022-10-31T21:26:56;27.98;;;13.88;;
30617;SDS011;17384;51.214;9.202;2022-10-31T21:29:22;25.52;;;14.02;;
30617;SDS011;17384;51.214;9.202;2022-10-31T21:31:48;21.67;;;12.55;;
30617;SDS011;17384;51.214;9.202;2022-10-31T21:34:13;22.40;;;11.70;;
30617;SDS011;17384;51.214;9.202;2022-10-31T21:36:38;23.00;;;12.02;;
30617;SDS011;17384;51.214;9.202;2022-10-31T21:39:04;27.65;;;13.93;;
30617;SDS011;17384;51.214;9.202;2022-10-31T21:41:30;21.20;;;10.60;;
30617;SDS011;17384;51.214;9.202;2022-10-31T21:43:55;18.40;;;11.75;;
30617;SDS011;17384;51.214;9.202;2022-10-31T21:46:22;21.90;;;12.40;;
30617;SDS011;17384;51.214;9.202;2022-10-31T21:48:47;25.40;;;15.40;;
30617;SDS011;17384;51.214;9.202;2022-10-31T21:51:17;28.55;;;15.57;;
30617;SDS011;17384;51.214;9.202;2022-10-31T21:53:43;30.83;;;13.68;;
30617;SDS011;17384;51.214;9.202;2022-10-31T21:56:27;24.67;;;12.32;;
30617;SDS011;17384;51.214;9.202;2022-10-31T21:58:53;26.67;;;13.93;;
30617;SDS011;17384;51.214;9.202;2022-10-31T22:01:19;24.80;;;13.57;;
30617;SDS011;17384;51.214;9.202;2022-10-31T22:03:44;25.90;;;13.32;;
30617;SDS011;17384;51.214;9.202;2022-10-31T22:06:10;21.85;;;13.13;;
30617;SDS011;17384;51.214;9.202;2022-10-31T22:08:36;29.33;;;12.40;;
30617;SDS011;17384;51.214;9.202;2022-10-31T22:11:05;29.75;;;12.30;;
30617;SDS011;17384;51.214;9.202;2022-10-31T22:13:31;21.58;;;12.35;;
30617;SDS011;17384;51.214;9.202;2022-10-31T22:16:00;24.60;;;12.85;;
30617;SDS011;17384;51.214;9.202;2022-10-31T22:18:26;24.30;;;12.80;;
30617;SDS011;17384;51.214;9.202;2022-10-31T22:20:51;25.90;;;12.13;;
30617;SDS011;17384;51.214;9.202;2022-10-31T22:23:16;24.92;;;12.85;;
30617;SDS011;17384;51.214;9.202;2022-10-31T22:25:42;25.95;;;12.70;;
30617;SDS011;17384;51.214;9.202;2022-10-31T22:28:07;19.95;;;12.48;;
30617;SDS011;17384;51.214;9.202;2022-10-31T22:30:32;19.95;;;11.60;;
30617;SDS011;17384;51.214;9.202;2022-10-31T22:32:58;26.42;;;13.63;;
30617;SDS011;17384;51.214;9.202;2022-10-31T22:35:23;18.48;;;11.45;;
30617;SDS011;17384;51.214;9.202;2022-10-31T22:37:50;18.98;;;10.98;;
30617;SDS011;17384;51.214;9.202;2022-10-31T22:40:15;23.48;;;11.63;;
30617;SDS011;17384;51.214;9.202;2022-10-31T22:42:41;35.55;;;13.27;;
30617;SDS011;17384;51.214;9.202;2022-10-31T22:45:07;18.73;;;11.35;;
30617;SDS011;17384;51.214;9.202;2022-10-31T22:47:32;20.13;;;10.85;;
30617;SDS011;17384;51.214;9.202;2022-10-31T22:49:58;27.27;;;13.35;;
30617;SDS011;17384;51.214;9.202;2022-10-31T22:52:23;23.70;;;13.35;;
30617;SDS011;17384;51.214;9.202;2022-10-31T22:54:49;27.80;;;14.35;;
30617;SDS011;17384;51.214;9.202;2022-10-31T22:57:14;30.23;;;13.60;;
30617;SDS011;17384;51.214;9.202;2022-10-31T22:59:39;21.17;;;11.88;;
30617;SDS011;17384;51.214;9.202;2022-10-31T23:02:05;24.60;;;13.32;;
30617;SDS011;17384;51.214;9.202;2022-10-31T23:04:30;23.77;;;12.82;;
30617;SDS011;17384;51.214;9.202;2022-10-31T23:06:55;23.95;;;13.90;;
30617;SDS011;17384;51.214;9.202;2022-10-31T23:09:21;19.08;;;12.13;;
30617;SDS011;17384;51.214;9.202;2022-10-31T23:11:46;26.83;;;12.57;;
30617;SDS011;17384;51.214;9.202;2022-10-31T23:14:13;23.13;;;11.70;;
30617;SDS011;17384;51.214;9.202;2022-10-31T23:16:41;20.88;;;11.25;;
30617;SDS011;17384;51.214;9.202;2022-10-31T23:19:07;23.98;;;13.65;;
30617;SDS011;17384;51.214;9.202;2022-10-31T23:21:39;26.52;;;14.02;;
30617;SDS011;17384;51.214;9.202;2022-10-31T23:27:03;29.45;;;14.65;;
30617;SDS011;17384;51.214;9.202;2022-10-31T23:29:43;24.65;;;15.48;;
30617;SDS011;17384;51.214;9.202;2022-10-31T23:32:11;35.25;;;17.75;;
30617;SDS011;17384;51.214;9.202;2022-10-31T23:34:37;37.05;;;18.55;;
30617;SDS011;17384;51.214;9.202;2022-10-31T23:37:02;40.95;;;20.85;;
30617;SDS011;17384;51.214;9.202;2022-10-31T23:39:28;51.03;;;22.50;;
30617;SDS011;17384;51.214;9.202;2022-10-31T23:41:53;46.67;;;23.00;;
30617;SDS011;17384;51.214;9.202;2022-10-31T23:44:19;48.13;;;23.05;;
30617;SDS011;17384;51.214;9.202;2022-10-31T23:46:44;43.65;;;19.70;;
30617;SDS011;17384;51.214;9.202;2022-10-31T23:49:09;38.85;;;19.73;;
30617;SDS011;17384;51.214;9.202;2022-10-31T23:51:35;33.92;;;17.88;;
30617;SDS011;17384;51.214;9.202;2022-10-31T23:54:00;38.30;;;19.05;;
30617;SDS011;17384;51.214;9.202;2022-10-31T23:56:25;38.92;;;20.08;;
30617;SDS011;17384;51.214;9.202;2022-10-31T23:58:51;35.80;;;19.38;;
